Emerald Leader — C6WP4 — position and weather

sailwx.info

Track history (hours):
 
Tides and Currents Weather Stations Pressure Air Temp Water Temp Dewpoint Dewpoint Depression Visibility Wind Speed Wind Dir Waves Ship Positions

Emerald Leader

Last reported at 2014-Oct-21 07:12 UTC. Time now 2014-Oct-21 11:53 UTC.
Position N 36°01' W 005°11'.

Length 176 m; draft 8.1 m.

Type: Cargo ship. MMSI: 308688000.

Date/timePositionNaut miles runAvg speedWind from/ knotsBaromVisibWave heightAir tempDewpointWater temp
2014-Oct-21 07:12N 36°01' W 005°11'1116.7
2014-Oct-21 06:33N 35°58' W 005°24'8615.8
2014-Oct-21 01:05N 36°05' W 007°10'1215.4
2014-Oct-21 00:20N 36°08' W 007°24'2815.7
2014-Oct-20 22:33N 36°16' W 007°57'3415.7
2014-Oct-20 20:24N 36°25' W 008°37'1715.7
2014-Oct-20 19:19N 36°30' W 008°58'2815.2
2014-Oct-20 17:27N 36°44' W 009°29'4515.5
2014-Oct-20 14:33N 37°27' W 009°44'1615.7
2014-Oct-20 13:33N 37°42' W 009°48'1615.6
2014-Oct-20 12:33N 37°57' W 009°51'1615.6
2014-Oct-20 11:33N 38°13' W 009°56'1515.4
2014-Oct-20 10:33N 38°28' W 010°01'1615.6
2014-Oct-20 09:33N 38°43' W 010°06'1615.7
2014-Oct-20 08:33N 38°58' W 010°05'1615.6
2014-Oct-20 07:33N 39°14' W 010°03'  
2014-Oct-17 15:20N 50°37' W 005°32'1113.6
2014-Oct-17 14:33N 50°44' W 005°20'89 2.4
2014-Oct-16 01:21N 51°22' W 003°12'1113.4
2014-Oct-16 00:33N 51°27' W 002°57'9 8.7
2014-Oct-15 23:31N 51°30' W 002°44'0 0.5
2014-Oct-15 22:31N 51°30' W 002°43'0 0.0
2014-Oct-15 21:31N 51°30' W 002°43'0 0.0
2014-Oct-15 20:31N 51°30' W 002°43'0 0.0
2014-Oct-15 19:31N 51°30' W 002°43'0 0.0
2014-Oct-15 18:31N 51°30' W 002°43'0 0.0
2014-Oct-15 17:31N 51°30' W 002°43'0 0.0
2014-Oct-15 16:31N 51°30' W 002°43'0 0.0
2014-Oct-15 15:31N 51°30' W 002°43'0 0.0
2014-Oct-15 14:31N 51°30' W 002°43'0 0.0
2014-Oct-15 13:31N 51°30' W 002°43'0 0.0
2014-Oct-15 12:31N 51°30' W 002°43'0 0.0
2014-Oct-15 11:31N 51°30' W 002°43'0 0.0
2014-Oct-15 10:31N 51°30' W 002°43'0 0.0
2014-Oct-15 09:31N 51°30' W 002°43'0 0.0
2014-Oct-15 08:31N 51°30' W 002°43'0 0.0
2014-Oct-15 07:31N 51°30' W 002°43'0 0.0
2014-Oct-15 06:31N 51°30' W 002°43'0 0.0
2014-Oct-15 05:31N 51°30' W 002°43'0 0.0
2014-Oct-15 04:31N 51°30' W 002°43'0 0.0
2014-Oct-15 03:31N 51°30' W 002°43'0 0.0
2014-Oct-15 02:31N 51°30' W 002°43'0 0.0
2014-Oct-15 01:31N 51°30' W 002°43'0 0.0
2014-Oct-15 00:31N 51°30' W 002°43'0 0.0
2014-Oct-14 23:31N 51°30' W 002°43'0 0.0
2014-Oct-14 22:31N 51°30' W 002°43'0 0.0
2014-Oct-14 21:31N 51°30' W 002°43'0 0.0
2014-Oct-14 20:31N 51°30' W 002°43'0 0.0
2014-Oct-14 19:31N 51°30' W 002°43'0 0.0
2014-Oct-14 18:31N 51°30' W 002°43'0 0.0
2014-Oct-14 17:31N 51°30' W 002°43'0 0.0
2014-Oct-14 16:31N 51°30' W 002°43'0 0.0
2014-Oct-14 15:31N 51°30' W 002°43'0 0.0
2014-Oct-14 14:31N 51°30' W 002°43'0 0.0
2014-Oct-14 13:31N 51°30' W 002°43'0 0.0
2014-Oct-14 12:31N 51°30' W 002°43'0 0.0
2014-Oct-14 11:31N 51°30' W 002°43'0 0.0
2014-Oct-14 10:31N 51°30' W 002°43'0 0.0
2014-Oct-14 09:31N 51°30' W 002°43'0 0.0
2014-Oct-14 08:31N 51°30' W 002°43'0 0.0
2014-Oct-14 07:31N 51°30' W 002°43'0 0.0
2014-Oct-14 06:31N 51°30' W 002°43'0 0.0
2014-Oct-14 05:31N 51°30' W 002°43'0 0.0
2014-Oct-14 04:31N 51°30' W 002°43'0 0.0
2014-Oct-14 03:31N 51°30' W 002°43'0 0.0
2014-Oct-14 02:31N 51°30' W 002°43'0 0.0
2014-Oct-14 01:31N 51°30' W 002°43'0 0.0
2014-Oct-14 00:31N 51°30' W 002°43'0 0.0
2014-Oct-13 23:31N 51°30' W 002°43'0 0.0
2014-Oct-13 22:31N 51°30' W 002°43'0 0.0
2014-Oct-13 21:31N 51°30' W 002°43'0 0.0
2014-Oct-13 20:31N 51°30' W 002°43'0 0.4
2014-Oct-13 19:33N 51°30' W 002°43'4 4.5
2014-Oct-13 18:34N 51°29' W 002°50'98 8.1
2014-Oct-13 06:22N 50°46' W 005°12'1113.9
2014-Oct-13 05:33N 50°39' W 005°25'204 9.3
2014-Oct-12 07:33N 50°29' W 000°04'1716.9
2014-Oct-12 06:33N 50°33' E 000°21'1716.8
2014-Oct-12 05:34N 50°41' E 000°44'1715.9
2014-Oct-12 04:30N 50°51' E 001°06'1314.3
2014-Oct-12 03:34N 51°01' E 001°21'1212.5
2014-Oct-12 02:34N 51°09' E 001°36'1312.6
2014-Oct-12 01:34N 51°18' E 001°50'1211.8
2014-Oct-12 00:33N 51°23' E 002°07'1414.3
2014-Oct-11 23:33N 51°23' E 002°30'1715.7
2014-Oct-11 22:29N 51°23' E 002°57'11 5.4
2014-Oct-11 20:33N 51°20' E 003°13'2 1.4
2014-Oct-11 19:25N 51°18' E 003°14'0 0.0
2014-Oct-11 18:28N 51°18' E 003°14'0 0.0
2014-Oct-11 17:31N 51°18' E 003°14'0 0.0
2014-Oct-11 16:31N 51°18' E 003°14'0 0.0
2014-Oct-11 15:31N 51°18' E 003°14'0 0.0
2014-Oct-11 14:28N 51°18' E 003°14'0 0.0
2014-Oct-11 13:28N 51°18' E 003°14'0 0.0
2014-Oct-11 12:19N 51°18' E 003°14'0 0.0
2014-Oct-11 11:28N 51°18' E 003°14'0 0.0
2014-Oct-11 10:29N 51°18' E 003°14'1 0.8
2014-Oct-11 09:32N 51°19' E 003°13'0 0.0
2014-Oct-11 08:32N 51°19' E 003°13'0 0.0
2014-Oct-11 07:32N 51°19' E 003°13'  
Track history (hours):
 
Tides and Currents Weather Stations Pressure Air Temp Water Temp Dewpoint Dewpoint Depression Visibility Wind Speed Wind Dir Waves Ship Positions

Emerald Leader

Last reported at 2014-Oct-21 07:12 UTC. Time now 2014-Oct-21 11:53 UTC.
Position N 36°01' W 005°11'.

Length 176 m; draft 8.1 m.

Type: Cargo ship. MMSI: 308688000.

Date/timePositionNaut miles runAvg speedWind from/ knotsBaromVisibWave heightAir tempDewpointWater temp
2014-Oct-21 07:12N 36°01' W 005°11'1116.7
2014-Oct-21 06:33N 35°58' W 005°24'8615.8
2014-Oct-21 01:05N 36°05' W 007°10'1215.4
2014-Oct-21 00:20N 36°08' W 007°24'2815.7
2014-Oct-20 22:33N 36°16' W 007°57'3415.7
2014-Oct-20 20:24N 36°25' W 008°37'1715.7
2014-Oct-20 19:19N 36°30' W 008°58'2815.2
2014-Oct-20 17:27N 36°44' W 009°29'4515.5
2014-Oct-20 14:33N 37°27' W 009°44'1615.7
2014-Oct-20 13:33N 37°42' W 009°48'1615.6
2014-Oct-20 12:33N 37°57' W 009°51'1615.6
2014-Oct-20 11:33N 38°13' W 009°56'1515.4
2014-Oct-20 10:33N 38°28' W 010°01'1615.6
2014-Oct-20 09:33N 38°43' W 010°06'1615.7
2014-Oct-20 08:33N 38°58' W 010°05'1615.6
2014-Oct-20 07:33N 39°14' W 010°03'  
2014-Oct-17 15:20N 50°37' W 005°32'1113.6
2014-Oct-17 14:33N 50°44' W 005°20'89 2.4
2014-Oct-16 01:21N 51°22' W 003°12'1113.4
2014-Oct-16 00:33N 51°27' W 002°57'9 8.7
2014-Oct-15 23:31N 51°30' W 002°44'0 0.5
2014-Oct-15 22:31N 51°30' W 002°43'0 0.0
2014-Oct-15 21:31N 51°30' W 002°43'0 0.0
2014-Oct-15 20:31N 51°30' W 002°43'0 0.0
2014-Oct-15 19:31N 51°30' W 002°43'0 0.0
2014-Oct-15 18:31N 51°30' W 002°43'0 0.0
2014-Oct-15 17:31N 51°30' W 002°43'0 0.0
2014-Oct-15 16:31N 51°30' W 002°43'0 0.0
2014-Oct-15 15:31N 51°30' W 002°43'0 0.0
2014-Oct-15 14:31N 51°30' W 002°43'0 0.0
2014-Oct-15 13:31N 51°30' W 002°43'0 0.0
2014-Oct-15 12:31N 51°30' W 002°43'0 0.0
2014-Oct-15 11:31N 51°30' W 002°43'0 0.0
2014-Oct-15 10:31N 51°30' W 002°43'0 0.0
2014-Oct-15 09:31N 51°30' W 002°43'0 0.0
2014-Oct-15 08:31N 51°30' W 002°43'0 0.0
2014-Oct-15 07:31N 51°30' W 002°43'0 0.0
2014-Oct-15 06:31N 51°30' W 002°43'0 0.0
2014-Oct-15 05:31N 51°30' W 002°43'0 0.0
2014-Oct-15 04:31N 51°30' W 002°43'0 0.0
2014-Oct-15 03:31N 51°30' W 002°43'0 0.0
2014-Oct-15 02:31N 51°30' W 002°43'0 0.0
2014-Oct-15 01:31N 51°30' W 002°43'0 0.0
2014-Oct-15 00:31N 51°30' W 002°43'0 0.0
2014-Oct-14 23:31N 51°30' W 002°43'0 0.0
2014-Oct-14 22:31N 51°30' W 002°43'0 0.0
2014-Oct-14 21:31N 51°30' W 002°43'0 0.0
2014-Oct-14 20:31N 51°30' W 002°43'0 0.0
2014-Oct-14 19:31N 51°30' W 002°43'0 0.0
2014-Oct-14 18:31N 51°30' W 002°43'0 0.0
2014-Oct-14 17:31N 51°30' W 002°43'0 0.0
2014-Oct-14 16:31N 51°30' W 002°43'0 0.0
2014-Oct-14 15:31N 51°30' W 002°43'0 0.0
2014-Oct-14 14:31N 51°30' W 002°43'0 0.0
2014-Oct-14 13:31N 51°30' W 002°43'0 0.0
2014-Oct-14 12:31N 51°30' W 002°43'0 0.0
2014-Oct-14 11:31N 51°30' W 002°43'0 0.0
2014-Oct-14 10:31N 51°30' W 002°43'0 0.0
2014-Oct-14 09:31N 51°30' W 002°43'0 0.0
2014-Oct-14 08:31N 51°30' W 002°43'0 0.0
2014-Oct-14 07:31N 51°30' W 002°43'0 0.0
2014-Oct-14 06:31N 51°30' W 002°43'0 0.0
2014-Oct-14 05:31N 51°30' W 002°43'0 0.0
2014-Oct-14 04:31N 51°30' W 002°43'0 0.0
2014-Oct-14 03:31N 51°30' W 002°43'0 0.0
2014-Oct-14 02:31N 51°30' W 002°43'0 0.0
2014-Oct-14 01:31N 51°30' W 002°43'0 0.0
2014-Oct-14 00:31N 51°30' W 002°43'0 0.0
2014-Oct-13 23:31N 51°30' W 002°43'0 0.0
2014-Oct-13 22:31N 51°30' W 002°43'0 0.0
2014-Oct-13 21:31N 51°30' W 002°43'0 0.0
2014-Oct-13 20:31N 51°30' W 002°43'0 0.4
2014-Oct-13 19:33N 51°30' W 002°43'4 4.5
2014-Oct-13 18:34N 51°29' W 002°50'98 8.1
2014-Oct-13 06:22N 50°46' W 005°12'1113.9
2014-Oct-13 05:33N 50°39' W 005°25'204 9.3
2014-Oct-12 07:33N 50°29' W 000°04'1716.9
2014-Oct-12 06:33N 50°33' E 000°21'1716.8
2014-Oct-12 05:34N 50°41' E 000°44'1715.9
2014-Oct-12 04:30N 50°51' E 001°06'1314.3
2014-Oct-12 03:34N 51°01' E 001°21'1212.5
2014-Oct-12 02:34N 51°09' E 001°36'1312.6
2014-Oct-12 01:34N 51°18' E 001°50'1211.8
2014-Oct-12 00:33N 51°23' E 002°07'1414.3
2014-Oct-11 23:33N 51°23' E 002°30'1715.7
2014-Oct-11 22:29N 51°23' E 002°57'11 5.4
2014-Oct-11 20:33N 51°20' E 003°13'2 1.4
2014-Oct-11 19:25N 51°18' E 003°14'0 0.0
2014-Oct-11 18:28N 51°18' E 003°14'0 0.0
2014-Oct-11 17:31N 51°18' E 003°14'0 0.0
2014-Oct-11 16:31N 51°18' E 003°14'0 0.0
2014-Oct-11 15:31N 51°18' E 003°14'0 0.0
2014-Oct-11 14:28N 51°18' E 003°14'0 0.0
2014-Oct-11 13:28N 51°18' E 003°14'0 0.0
2014-Oct-11 12:19N 51°18' E 003°14'0 0.0
2014-Oct-11 11:28N 51°18' E 003°14'0 0.0
2014-Oct-11 10:29N 51°18' E 003°14'1 0.8
2014-Oct-11 09:32N 51°19' E 003°13'0 0.0
2014-Oct-11 08:32N 51°19' E 003°13'0 0.0
2014-Oct-11 07:32N 51°19' E 003°13'  

Dump ship's entire track history